Time;durP1;ratioP1;P1;durP2;ratioP2;P2;SDS_P1;SDS_P2;PMS_P1;PMS_P2;Temp;Humidity;BMP_temperature;BMP_pressure;BME280_temperature;BME280_humidity;BME280_pressure;Samples;Min_cycle;Max_cycle;Signal;HPM_P1;HPM_P2
2023/10/16 00:02:56;;;;;;;;;;;;;;;2.92;100.00;96282.41;10493480;28;2568;-72
2023/10/16 00:08:05;;;;;;;;;;;;;;;2.92;100.00;96282.41;10494522;28;5123;-72
2023/10/16 00:13:11;;;;;;;;;;;;;;;2.84;100.00;96278.19;10496757;28;2731;-73
2023/10/16 00:18:17;;;;;;;;;;;;;;;2.82;100.00;96268.81;10500968;28;2542;-73
2023/10/16 00:23:24;;;;;;;;;;;;;;;2.75;100.00;96268.84;10498481;28;3096;-74
2023/10/16 00:28:27;;;;;;;;;;;;;;;2.67;100.00;96269.91;10505229;28;2631;-73
2023/10/16 00:33:29;;;;;;;;;;;;;;;2.64;100.00;96272.97;10496902;28;2730;-73
2023/10/16 00:38:37;;;;;;;;;;;;;;;2.58;100.00;96257.06;10492689;28;2625;-73
2023/10/16 00:43:40;;;;;;;;;;;;;;;2.51;100.00;96257.09;10505569;28;2650;-73
2023/10/16 00:48:42;;;;;;;;;;;;;;;2.48;100.00;96246.09;10494637;28;2593;-72
2023/10/16 00:53:45;;;;;;;;;;;;;;;2.45;100.00;96236.72;10498718;28;2653;-73
2023/10/16 00:58:48;;;;;;;;;;;;;;;2.44;100.00;96240.41;10504419;28;2606;-73
2023/10/16 01:03:52;;;;;;;;;;;;;;;2.45;100.00;96228.75;10501670;28;2645;-71
2023/10/16 01:08:56;;;;;;;;;;;;;;;2.43;100.00;96233.47;10484133;28;5275;-73
2023/10/16 01:13:59;;;;;;;;;;;;;;;2.40;100.00;96228.56;10506082;28;2835;-73
2023/10/16 01:19:03;;;;;;;;;;;;;;;2.42;100.00;96226.53;10501154;28;2620;-73
2023/10/16 01:24:12;;;;;;;;;;;;;;;2.41;100.00;96231.00;10498659;28;2588;-72
2023/10/16 01:29:15;;;;;;;;;;;;;;;2.39;100.00;96232.25;10504719;28;2544;-75
2023/10/16 01:34:22;;;;;;;;;;;;;;;2.35;100.00;96228.38;10498637;28;2620;-73
2023/10/16 01:39:48;;;;;;;;;;;;;;;2.36;100.00;96222.06;10479987;28;2677;-73
2023/10/16 01:44:52;;;;;;;;;;;;;;;2.38;100.00;96220.03;10496115;28;2534;-72
2023/10/16 01:49:55;;;;;;;;;;;;;;;2.40;100.00;96220.63;10500629;28;2596;-73
2023/10/16 01:54:57;;;;;;;;;;;;;;;2.39;100.00;96221.63;10498917;28;2604;-73
2023/10/16 02:00:00;;;;;;;;;;;;;;;2.40;100.00;96218.78;10510566;28;2629;-72
2023/10/16 02:05:02;;;;;;;;;;;;;;;2.36;100.00;96209.63;10496789;28;2589;-72
2023/10/16 02:10:05;;;;;;;;;;;;;;;2.41;100.00;96208.97;10495462;28;5134;-72
2023/10/16 02:15:09;;;;;;;;;;;;;;;2.35;100.00;96207.16;10499111;28;2602;-73
2023/10/16 02:20:13;;;;;;;;;;;;;;;2.42;100.00;96211.44;10502013;28;2540;-73
2023/10/16 02:25:17;;;;;;;;;;;;;;;2.50;100.00;96197.09;10497440;28;2623;-72
2023/10/16 02:35:37;;;;;;;;;;;;;;;2.71;100.00;96193.28;10492560;28;2606;-72
2023/10/16 02:40:41;;;;;;;;;;;;;;;2.89;100.00;96188.06;10500450;28;2663;-74
2023/10/16 02:45:46;;;;;;;;;;;;;;;2.98;100.00;96178.81;10497065;28;2676;-73
2023/10/16 02:50:53;;;;;;;;;;;;;;;2.99;100.00;96166.38;10499350;28;2612;-74
2023/10/16 02:55:58;;;;;;;;;;;;;;;2.95;100.00;96168.63;10502039;28;2573;-75
2023/10/16 03:01:06;;;;;;;;;;;;;;;2.93;100.00;96181.31;10493600;28;2600;-74
2023/10/16 03:06:09;;;;;;;;;;;;;;;2.97;100.00;96181.69;10479199;28;2649;-73
2023/10/16 03:11:13;;;;;;;;;;;;;;;2.71;100.00;96183.50;10501147;28;2569;-72
2023/10/16 03:16:17;;;;;;;;;;;;;;;2.51;100.00;96182.81;10501898;28;2574;-72
2023/10/16 03:21:30;;;;;;;;;;;;;;;2.51;100.00;96188.09;10491011;28;2713;-72
2023/10/16 03:26:33;;;;;;;;;;;;;;;2.45;100.00;96181.00;10497310;28;3090;-73
2023/10/16 03:31:39;;;;;;;;;;;;;;;2.40;100.00;96191.44;10496736;28;2589;-73
2023/10/16 03:36:42;;;;;;;;;;;;;;;2.53;100.00;96188.69;10500185;28;2531;-73
2023/10/16 03:41:45;;;;;;;;;;;;;;;2.72;100.00;96190.41;10500059;28;2606;-71
2023/10/16 03:46:49;;;;;;;;;;;;;;;2.72;100.00;96192.25;10496373;28;2533;-73
2023/10/16 03:51:52;;;;;;;;;;;;;;;2.81;100.00;96179.56;10496276;28;2915;-74
2023/10/16 03:56:55;;;;;;;;;;;;;;;2.70;100.00;96176.56;10509017;28;2601;-73
2023/10/16 04:01:57;;;;;;;;;;;;;;;2.67;100.00;96179.66;10510537;28;2711;-74
2023/10/16 04:07:00;;;;;;;;;;;;;;;2.74;100.00;96176.16;10497429;28;5167;-72
2023/10/16 04:12:06;;;;;;;;;;;;;;;2.60;100.00;96180.69;10512732;28;2692;-72
2023/10/16 04:17:11;;;;;;;;;;;;;;;2.61;100.00;96166.44;10508549;28;2602;-72
2023/10/16 04:22:17;;;;;;;;;;;;;;;2.53;100.00;96161.34;10507376;28;2592;-72
2023/10/16 04:27:33;;;;;;;;;;;;;;;2.57;100.00;96147.44;10499413;28;2570;-72
2023/10/16 04:32:40;;;;;;;;;;;;;;;2.56;100.00;96148.47;10502243;28;2700;-73
2023/10/16 04:37:49;;;;;;;;;;;;;;;2.60;100.00;96135.56;10499442;28;2909;-73
2023/10/16 04:48:08;;;;;;;;;;;;;;;2.47;100.00;96128.50;10507159;28;2600;-73
2023/10/16 04:53:11;;;;;;;;;;;;;;;2.53;100.00;96122.34;10500888;28;2679;-73
2023/10/16 05:03:44;;;;;;;;;;;;;;;2.65;100.00;96114.53;10491957;28;2645;-74
2023/10/16 05:09:53;;;;;;;;;;;;;;;2.65;100.00;96114.53;10483664;28;5190;-73
2023/10/16 05:14:50;;;;;;;;;;;;;;;2.64;100.00;96129.63;10503353;28;2675;-74
2023/10/16 05:19:46;;;;;;;;;;;;;;;2.63;100.00;96114.75;10498526;28;2610;-74
2023/10/16 06:18:11;;;;;;;;;;;;;;;2.46;100.00;96131.38;10500349;28;2654;-76
2023/10/16 06:23:13;;;;;;;;;;;;;;;2.48;100.00;96124.84;10497960;28;2670;-75
2023/10/16 06:28:16;;;;;;;;;;;;;;;2.62;100.00;96139.66;10494007;28;2746;-75
2023/10/16 06:33:18;;;;;;;;;;;;;;;2.55;100.00;96138.09;10501801;28;2513;-73
2023/10/16 06:38:22;;;;;;;;;;;;;;;2.60;100.00;96133.75;10492644;28;2608;-73
2023/10/16 06:43:26;;;;;;;;;;;;;;;2.65;100.00;96131.25;10498215;28;2541;-72
2023/10/16 06:48:29;;;;;;;;;;;;;;;2.49;100.00;96125.69;10493084;28;2676;-72
2023/10/16 06:53:33;;;;;;;;;;;;;;;2.68;100.00;96136.16;10493118;28;2522;-71
2023/10/16 06:58:36;;;;;;;;;;;;;;;2.90;100.00;96130.47;10495159;28;2744;-73
2023/10/16 07:03:39;;;;;;;;;;;;;;;2.92;100.00;96133.72;10500512;28;2735;-71
2023/10/16 07:08:42;;;;;;;;;;;;;;;3.03;100.00;96122.38;10497734;28;5263;-70
2023/10/16 07:13:44;;;;;;;;;;;;;;;3.11;100.00;96134.56;10508308;28;2588;-72
2023/10/16 07:18:53;;;;;;;;;;;;;;;3.17;100.00;96128.41;10501054;28;2549;-72
2023/10/16 07:23:56;;;;;;;;;;;;;;;3.38;100.00;96140.50;10500755;28;2736;-72
2023/10/16 07:28:59;;;;;;;;;;;;;;;3.37;100.00;96136.19;10480423;28;2697;-72
2023/10/16 07:34:04;;;;;;;;;;;;;;;3.60;100.00;96128.38;10498962;28;2574;-72
2023/10/16 07:39:06;;;;;;;;;;;;;;;3.78;100.00;96141.69;10500903;28;2631;-72
2023/10/16 07:44:09;;;;;;;;;;;;;;;4.00;100.00;96135.91;10497907;28;2655;-71
2023/10/16 07:49:15;;;;;;;;;;;;;;;4.13;100.00;96127.75;10490287;28;2669;-74
2023/10/16 07:54:18;;;;;;;;;;;;;;;4.14;100.00;96129.41;10490840;28;2628;-75
2023/10/16 07:59:21;;;;;;;;;;;;;;;4.20;100.00;96131.19;10494532;28;2687;-74
2023/10/16 08:04:35;;;;;;;;;;;;;;;4.26;100.00;96127.63;10490895;28;2628;-72
2023/10/16 08:09:57;;;;;;;;;;;;;;;4.44;100.00;96123.25;10486919;28;4492;-73
2023/10/16 08:15:03;;;;;;;;;;;;;;;4.70;100.00;96122.88;10492152;28;2688;-73
2023/10/16 08:20:08;;;;;;;;;;;;;;;4.79;100.00;96113.53;10488010;28;2699;-74
2023/10/16 08:25:30;;;;;;;;;;;;;;;4.85;100.00;96114.47;10488570;28;2641;-72
2023/10/16 08:30:49;;;;;;;;;;;;;;;4.99;100.00;96109.75;10501626;28;2565;-74
2023/10/16 08:35:52;;;;;;;;;;;;;;;5.04;100.00;96123.19;10490376;28;2663;-72
2023/10/16 08:40:57;;;;;;;;;;;;;;;5.27;100.00;96107.19;10496651;28;2591;-73
2023/10/16 08:46:02;;;;;;;;;;;;;;;5.21;100.00;96113.44;10499947;28;2604;-73
2023/10/16 08:51:08;;;;;;;;;;;;;;;5.37;100.00;96106.63;10494000;28;2657;-73
2023/10/16 08:56:12;;;;;;;;;;;;;;;5.60;100.00;96105.81;10500118;28;2604;-74
2023/10/16 09:01:19;;;;;;;;;;;;;;;5.56;100.00;96110.00;10502302;28;2657;-75
2023/10/16 09:06:22;;;;;;;;;;;;;;;5.68;100.00;96097.44;10494720;28;2594;-72
2023/10/16 09:11:25;;;;;;;;;;;;;;;5.94;100.00;96091.63;10498746;28;2593;-71
2023/10/16 09:16:31;;;;;;;;;;;;;;;6.23;100.00;96089.78;10499772;28;2636;-73
2023/10/16 09:21:38;;;;;;;;;;;;;;;6.25;100.00;96089.56;10504375;28;2612;-70
2023/10/16 09:26:44;;;;;;;;;;;;;;;6.42;100.00;96079.69;10494960;28;2812;-72
2023/10/16 09:31:48;;;;;;;;;;;;;;;6.49;100.00;96072.38;10499283;28;2593;-73
2023/10/16 09:37:15;;;;;;;;;;;;;;;6.60;100.00;96075.22;10493732;28;2743;-73
2023/10/16 09:42:14;;;;;;;;;;;;;;;6.50;100.00;96062.50;10490066;28;2700;-71
2023/10/16 09:47:26;;;;;;;;;;;;;;;6.70;100.00;96062.84;10490271;28;2658;-71
2023/10/16 09:52:31;;;;;;;;;;;;;;;6.73;100.00;96064.22;10492849;28;2767;-72
2023/10/16 09:57:33;;;;;;;;;;;;;;;6.72;100.00;96071.41;10493808;28;2545;-72
2023/10/16 10:02:39;;;;;;;;;;;;;;;6.98;100.00;96064.63;10490143;28;2613;-71
2023/10/16 10:07:47;;;;;;;;;;;;;;;7.09;100.00;96054.91;10489716;28;4625;-71
2023/10/16 10:12:49;;;;;;;;;;;;;;;7.18;100.00;96060.63;10500833;28;2592;-72
2023/10/16 10:17:54;;;;;;;;;;;;;;;7.18;100.00;96060.63;10499290;28;2597;-72
2023/10/16 10:22:57;;;;;;;;;;;;;;;7.20;100.00;96061.22;10496710;28;2572;-72
2023/10/16 10:28:09;;;;;;;;;;;;;;;7.46;100.00;96049.03;10484495;28;2776;-74
2023/10/16 10:33:12;;;;;;;;;;;;;;;7.80;100.00;96045.16;10509052;28;2621;-72
2023/10/16 10:38:21;;;;;;;;;;;;;;;7.55;100.00;96034.97;10502189;28;2605;-72
2023/10/16 10:43:24;;;;;;;;;;;;;;;7.85;100.00;96039.09;10500254;28;2684;-75
2023/10/16 10:48:26;;;;;;;;;;;;;;;8.19;100.00;96031.69;10497151;28;2628;-73
2023/10/16 10:53:29;;;;;;;;;;;;;;;8.11;100.00;96019.56;10502636;28;2642;-75
2023/10/16 10:58:32;;;;;;;;;;;;;;;8.38;100.00;96014.22;10494037;28;2628;-76
2023/10/16 11:03:41;;;;;;;;;;;;;;;8.43;100.00;96010.00;10497775;28;2666;-73
2023/10/16 11:08:44;;;;;;;;;;;;;;;8.13;100.00;96013.94;10499864;28;4653;-71
2023/10/16 11:13:48;;;;;;;;;;;;;;;8.57;100.00;95995.13;10500063;28;2654;-71
2023/10/16 11:18:50;;;;;;;;;;;;;;;8.40;100.00;95997.94;10497190;28;2637;-73
2023/10/16 11:23:55;;;;;;;;;;;;;;;8.37;100.00;95993.06;10491324;28;2657;-72
2023/10/16 11:29:00;;;;;;;;;;;;;;;8.41;100.00;95980.78;10495650;28;2844;-75
2023/10/16 11:34:02;;;;;;;;;;;;;;;8.39;100.00;95978.34;10505724;28;2623;-72
2023/10/16 11:39:06;;;;;;;;;;;;;;;8.30;100.00;95974.50;10501857;28;2637;-73
2023/10/16 11:44:14;;;;;;;;;;;;;;;8.21;100.00;95975.22;10503668;28;2684;-75
2023/10/16 11:49:29;;;;;;;;;;;;;;;8.19;100.00;95958.59;10506655;28;2693;-75
2023/10/16 11:54:31;;;;;;;;;;;;;;;8.06;100.00;95960.59;10501224;28;2636;-72
2023/10/16 11:59:34;;;;;;;;;;;;;;;8.07;100.00;95954.19;10499651;28;2636;-72
2023/10/16 12:04:37;;;;;;;;;;;;;;;8.17;100.00;95947.31;10498189;28;2690;-72
2023/10/16 12:09:42;;;;;;;;;;;;;;;8.02;100.00;95940.78;10509178;28;4770;-74
2023/10/16 12:14:45;;;;;;;;;;;;;;;8.27;100.00;95942.03;10510368;28;2618;-72
2023/10/16 12:19:47;;;;;;;;;;;;;;;8.35;100.00;95946.97;10511013;28;2692;-75
2023/10/16 12:24:50;;;;;;;;;;;;;;;8.17;100.00;95931.25;10504991;28;2629;-73
2023/10/16 12:29:53;;;;;;;;;;;;;;;8.23;100.00;95919.53;10509394;28;2589;-74
2023/10/16 12:34:58;;;;;;;;;;;;;;;8.42;100.00;95925.34;10505665;28;2557;-74
2023/10/16 12:40:24;;;;;;;;;;;;;;;8.20;100.00;95920.03;10508825;28;2620;-71
2023/10/16 12:45:23;;;;;;;;;;;;;;;8.27;100.00;95916.09;10506685;28;2594;-72
2023/10/16 12:50:27;;;;;;;;;;;;;;;8.32;100.00;95901.91;10499776;28;2698;-73
2023/10/16 12:55:29;;;;;;;;;;;;;;;8.26;100.00;95897.59;10502138;28;2684;-74
2023/10/16 13:00:38;;;;;;;;;;;;;;;8.28;100.00;95885.56;10506531;28;2640;-74
2023/10/16 13:05:41;;;;;;;;;;;;;;;8.33;100.00;95888.28;10500082;28;2727;-73
2023/10/16 13:10:48;;;;;;;;;;;;;;;8.39;100.00;95889.16;10504497;28;2577;-73
2023/10/16 13:15:54;;;;;;;;;;;;;;;8.49;100.00;95891.09;10504703;28;2557;-73
2023/10/16 13:21:06;;;;;;;;;;;;;;;8.51;100.00;95884.41;10497647;28;2633;-72
2023/10/16 13:26:08;;;;;;;;;;;;;;;8.47;100.00;95883.34;10497400;28;2596;-74
2023/10/16 13:31:11;;;;;;;;;;;;;;;8.47;100.00;95869.94;10505282;28;2679;-73
2023/10/16 13:36:14;;;;;;;;;;;;;;;8.62;100.00;95867.34;10498809;28;2671;-72
2023/10/16 13:41:18;;;;;;;;;;;;;;;8.59;100.00;95857.16;10499579;28;2632;-75
2023/10/16 13:46:21;;;;;;;;;;;;;;;8.66;100.00;95863.09;10501596;28;2544;-75
2023/10/16 13:51:24;;;;;;;;;;;;;;;8.62;100.00;95853.94;10502861;28;2602;-72
2023/10/16 13:56:28;;;;;;;;;;;;;;;8.70;100.00;95849.97;10504857;28;2554;-73
2023/10/16 14:01:31;;;;;;;;;;;;;;;8.59;100.00;95851.81;10500497;28;2690;-74
2023/10/16 14:06:34;;;;;;;;;;;;;;;8.56;100.00;95848.81;10501143;28;2652;-75
2023/10/16 14:11:46;;;;;;;;;;;;;;;8.51;100.00;95840.75;10481377;28;4708;-74
2023/10/16 14:16:49;;;;;;;;;;;;;;;8.52;100.00;95845.84;10509541;28;2586;-74
2023/10/16 14:21:54;;;;;;;;;;;;;;;8.52;100.00;95834.31;10495220;28;2588;-73
2023/10/16 14:26:57;;;;;;;;;;;;;;;8.48;100.00;95831.38;10493568;28;2598;-72
2023/10/16 14:32:02;;;;;;;;;;;;;;;8.50;100.00;95829.22;10500310;28;2645;-72
2023/10/16 14:37:06;;;;;;;;;;;;;;;8.48;100.00;95831.38;10498307;28;2663;-72
2023/10/16 14:42:11;;;;;;;;;;;;;;;8.40;100.00;95829.19;10502563;28;2623;-72
2023/10/16 14:47:15;;;;;;;;;;;;;;;8.37;100.00;95813.59;10491364;28;2521;-73
2023/10/16 14:52:17;;;;;;;;;;;;;;;8.46;100.00;95816.59;10479374;28;2545;-73
2023/10/16 14:57:24;;;;;;;;;;;;;;;8.43;100.00;95811.78;10500124;28;2659;-72
2023/10/16 15:02:28;;;;;;;;;;;;;;;8.31;100.00;95817.28;10497060;28;2795;-73
2023/10/16 15:07:31;;;;;;;;;;;;;;;8.26;100.00;95807.34;10498783;28;4644;-73
2023/10/16 15:12:33;;;;;;;;;;;;;;;8.22;100.00;95816.16;10477325;28;2585;-73
2023/10/16 15:17:36;;;;;;;;;;;;;;;8.23;100.00;95823.13;10498454;28;2629;-75
2023/10/16 15:22:42;;;;;;;;;;;;;;;8.08;100.00;95813.13;10497829;28;2617;-73
2023/10/16 15:27:46;;;;;;;;;;;;;;;8.05;100.00;95818.97;10498347;28;2770;-74
2023/10/16 15:32:48;;;;;;;;;;;;;;;7.96;100.00;95813.31;10496801;28;2670;-73
2023/10/16 15:37:51;;;;;;;;;;;;;;;7.91;100.00;95815.13;10496075;28;2590;-73
2023/10/16 15:42:57;;;;;;;;;;;;;;;7.87;100.00;95814.81;10506842;28;2941;-73
2023/10/16 15:47:59;;;;;;;;;;;;;;;7.79;100.00;95812.63;10505686;28;2661;-75
2023/10/16 15:53:04;;;;;;;;;;;;;;;7.67;100.00;95820.78;10491810;28;2600;-72
2023/10/16 15:58:07;;;;;;;;;;;;;;;7.48;100.00;95820.34;10504861;28;2711;-73
2023/10/16 16:03:10;;;;;;;;;;;;;;;7.31;100.00;95831.13;10503901;28;2561;-72
2023/10/16 16:08:14;;;;;;;;;;;;;;;7.18;100.00;95834.19;10498954;28;4780;-75
2023/10/16 16:13:17;;;;;;;;;;;;;;;7.05;100.00;95835.38;10504991;28;2704;-74
2023/10/16 16:18:19;;;;;;;;;;;;;;;6.88;100.00;95833.88;10513318;28;2628;-73
2023/10/16 16:23:25;;;;;;;;;;;;;;;6.73;100.00;95837.13;10502535;28;2582;-73
2023/10/16 16:28:28;;;;;;;;;;;;;;;6.61;100.00;95849.78;10504832;28;2636;-74
2023/10/16 16:33:30;;;;;;;;;;;;;;;6.52;100.00;95857.41;10504826;28;2634;-74
2023/10/16 16:38:33;;;;;;;;;;;;;;;6.39;100.00;95863.09;10499055;28;2637;-73
2023/10/16 16:43:36;;;;;;;;;;;;;;;6.30;100.00;95865.41;10487722;28;2596;-72
2023/10/16 16:48:39;;;;;;;;;;;;;;;6.16;100.00;95869.41;10503177;28;2542;-74
2023/10/16 16:53:41;;;;;;;;;;;;;;;6.02;100.00;95874.28;10483149;28;2652;-73
2023/10/16 16:58:44;;;;;;;;;;;;;;;5.90;100.00;95871.66;10504041;28;2572;-73
2023/10/16 17:03:46;;;;;;;;;;;;;;;5.78;100.00;95884.25;10502493;28;2572;-74
2023/10/16 17:08:50;;;;;;;;;;;;;;;5.73;100.00;95886.03;10504283;28;4665;-76
2023/10/16 17:13:54;;;;;;;;;;;;;;;5.64;100.00;95893.59;10507950;28;2544;-72
2023/10/16 17:18:58;;;;;;;;;;;;;;;5.51;100.00;95904.56;10507285;28;2538;-73
2023/10/16 17:24:03;;;;;;;;;;;;;;;5.39;100.00;95905.41;10508426;28;2558;-77
2023/10/16 17:29:09;;;;;;;;;;;;;;;5.35;100.00;95909.63;10528186;28;2502;-74
2023/10/16 17:34:14;;;;;;;;;;;;;;;5.26;100.00;95919.00;10522425;28;1484;-78
2023/10/16 17:39:18;;;;;;;;;;;;;;;5.15;100.00;95927.84;10525218;28;1930;-75
2023/10/16 17:44:24;;;;;;;;;;;;;;;5.09;100.00;95929.63;10527572;28;2019;-73
2023/10/16 17:49:27;;;;;;;;;;;;;;;5.01;100.00;95927.28;10522147;28;1575;-74
2023/10/16 17:54:31;;;;;;;;;;;;;;;4.96;100.00;95923.72;10527185;28;1567;-72
2023/10/16 17:59:34;;;;;;;;;;;;;;;4.82;100.00;95929.28;10521018;28;2298;-73
2023/10/16 18:04:37;;;;;;;;;;;;;;;4.74;100.00;95928.84;10522100;28;1504;-74
2023/10/16 18:09:40;;;;;;;;;;;;;;;4.75;100.00;95935.78;10517590;28;4690;-73
2023/10/16 18:14:42;;;;;;;;;;;;;;;4.69;100.00;95918.88;10528306;28;2867;-73
2023/10/16 18:19:46;;;;;;;;;;;;;;;4.61;100.00;95927.22;10522853;28;1971;-73
2023/10/16 18:24:55;;;;;;;;;;;;;;;4.61;100.00;95921.91;10519417;28;1996;-74
2023/10/16 18:29:59;;;;;;;;;;;;;;;4.49;100.00;95919.22;10527818;28;1752;-75
2023/10/16 18:35:01;;;;;;;;;;;;;;;4.40;100.00;95914.50;10524827;28;1538;-73
2023/10/16 18:40:09;;;;;;;;;;;;;;;4.40;100.00;95911.84;10523906;28;1918;-75
2023/10/16 18:45:12;;;;;;;;;;;;;;;4.32;100.00;95905.78;10520919;28;1686;-72
2023/10/16 18:50:15;;;;;;;;;;;;;;;4.22;100.00;95896.78;10517514;28;1751;-70
2023/10/16 18:55:18;;;;;;;;;;;;;;;4.17;100.00;95904.63;10500899;28;1588;-74
2023/10/16 19:00:21;;;;;;;;;;;;;;;4.01;100.00;95914.13;10519979;28;1960;-72
2023/10/16 19:05:27;;;;;;;;;;;;;;;4.04;100.00;95911.78;10524983;28;1524;-71
2023/10/16 19:10:30;;;;;;;;;;;;;;;3.99;100.00;95908.19;10519400;28;4769;-73
2023/10/16 19:15:35;;;;;;;;;;;;;;;3.96;100.00;95914.78;10524196;28;2868;-76
2023/10/16 19:20:37;;;;;;;;;;;;;;;3.95;100.00;95907.06;10524072;28;1993;-79
2023/10/16 19:25:42;;;;;;;;;;;;;;;3.94;100.00;95906.22;10522140;28;1524;-78
2023/10/16 19:30:45;;;;;;;;;;;;;;;3.92;100.00;95902.97;10524673;28;2573;-77
2023/10/16 19:35:48;;;;;;;;;;;;;;;3.84;100.00;95905.16;10501179;28;2542;-78
2023/10/16 19:40:52;;;;;;;;;;;;;;;3.86;100.00;95916.38;10512706;28;3080;-78
2023/10/16 19:45:54;;;;;;;;;;;;;;;3.71;100.00;95917.63;10505028;28;2633;-79
2023/10/16 19:50:58;;;;;;;;;;;;;;;3.70;100.00;95916.00;10496649;28;2597;-79
2023/10/16 19:56:00;;;;;;;;;;;;;;;3.69;100.00;95924.19;10499780;28;2637;-78
2023/10/16 20:01:04;;;;;;;;;;;;;;;3.74;100.00;95911.84;10481839;28;2592;-79
2023/10/16 20:06:11;;;;;;;;;;;;;;;3.72;100.00;95919.22;10504125;28;2603;-77
2023/10/16 20:11:13;;;;;;;;;;;;;;;3.74;100.00;95919.81;10488641;28;4772;-79
2023/10/16 20:16:16;;;;;;;;;;;;;;;3.64;100.00;95916.91;10499148;28;2913;-79
2023/10/16 20:21:18;;;;;;;;;;;;;;;3.58;100.00;95912.50;10496547;28;2723;-79
2023/10/16 20:26:22;;;;;;;;;;;;;;;3.47;100.00;95911.41;10496627;28;2580;-77
2023/10/16 20:31:25;;;;;;;;;;;;;;;3.48;100.00;95901.59;10503453;28;2546;-78
2023/10/16 20:36:28;;;;;;;;;;;;;;;3.44;100.00;95903.09;10499776;28;2622;-79
2023/10/16 20:41:32;;;;;;;;;;;;;;;3.47;100.00;95910.59;10506199;28;2662;-77
2023/10/16 20:46:35;;;;;;;;;;;;;;;3.40;100.00;95909.88;10499757;28;2649;-77
2023/10/16 20:51:37;;;;;;;;;;;;;;;3.40;100.00;95907.22;10495931;28;2621;-82
2023/10/16 20:56:40;;;;;;;;;;;;;;;3.34;100.00;95916.91;10488445;28;2653;-82
2023/10/16 21:01:43;;;;;;;;;;;;;;;3.40;100.00;95909.88;10497563;28;2871;-84
2023/10/16 21:06:46;;;;;;;;;;;;;;;3.32;100.00;95910.19;10496157;28;2561;-84
2023/10/16 21:11:48;;;;;;;;;;;;;;;3.38;100.00;95918.09;10491256;28;5027;-81
2023/10/16 21:16:51;;;;;;;;;;;;;;;3.41;100.00;95916.81;10501263;28;2539;-82
2023/10/16 21:21:53;;;;;;;;;;;;;;;3.40;100.00;95905.38;10500673;28;2614;-80
2023/10/16 21:26:56;;;;;;;;;;;;;;;3.39;100.00;95893.13;10510283;28;2600;-84
2023/10/16 21:31:59;;;;;;;;;;;;;;;3.39;100.00;95898.44;10527071;28;2610;-82
2023/10/16 21:37:01;;;;;;;;;;;;;;;3.38;100.00;95896.00;10546904;28;2569;-81
2023/10/16 21:42:04;;;;;;;;;;;;;;;3.35;100.00;95888.47;10532545;28;2613;-82
2023/10/16 21:47:07;;;;;;;;;;;;;;;3.29;100.00;95873.44;10511975;28;2824;-82
2023/10/16 21:52:11;;;;;;;;;;;;;;;3.21;100.00;95872.72;10500976;28;2648;-81
2023/10/16 21:57:16;;;;;;;;;;;;;;;3.19;100.00;95866.81;10505193;28;2580;-82
2023/10/16 22:02:20;;;;;;;;;;;;;;;3.24;100.00;95879.41;10507227;28;3013;-82
2023/10/16 22:07:26;;;;;;;;;;;;;;;3.23;100.00;95881.25;10496428;28;4678;-82
2023/10/16 22:12:31;;;;;;;;;;;;;;;3.19;100.00;95877.47;10506134;28;2576;-80
2023/10/16 22:17:34;;;;;;;;;;;;;;;3.34;100.00;95871.72;10505328;28;2576;-81
2023/10/16 22:22:36;;;;;;;;;;;;;;;3.37;100.00;95865.97;10495944;28;2637;-80
2023/10/16 22:27:40;;;;;;;;;;;;;;;3.20;100.00;95860.47;10500638;28;2648;-79
2023/10/16 22:32:42;;;;;;;;;;;;;;;3.34;100.00;95854.97;10495668;28;2560;-79
2023/10/16 22:37:49;;;;;;;;;;;;;;;3.31;100.00;95839.47;10496300;28;2620;-81
2023/10/16 22:42:53;;;;;;;;;;;;;;;3.23;100.00;95851.22;10492207;28;2557;-81
2023/10/16 22:47:56;;;;;;;;;;;;;;;3.21;100.00;95843.50;10489682;28;2573;-80
2023/10/16 22:52:58;;;;;;;;;;;;;;;3.20;100.00;95830.44;10493864;28;2633;-79
2023/10/16 22:58:01;;;;;;;;;;;;;;;3.14;100.00;95832.16;10500759;28;2608;-80
2023/10/16 23:03:04;;;;;;;;;;;;;;;3.07;100.00;95841.25;10494918;28;2585;-80
2023/10/16 23:08:07;;;;;;;;;;;;;;;2.99;100.00;95845.03;10500168;28;4697;-80
2023/10/16 23:13:12;;;;;;;;;;;;;;;2.83;100.00;95851.75;10502279;28;2898;-79
2023/10/16 23:18:15;;;;;;;;;;;;;;;2.84;100.00;95844.59;10496190;28;2623;-80
2023/10/16 23:23:22;;;;;;;;;;;;;;;2.74;100.00;95841.69;10497509;28;2650;-80
2023/10/16 23:28:25;;;;;;;;;;;;;;;2.82;100.00;95842.16;10499767;28;2613;-83
2023/10/16 23:33:27;;;;;;;;;;;;;;;2.81;100.00;95835.25;10500281;28;2684;-79
2023/10/16 23:38:30;;;;;;;;;;;;;;;2.85;100.00;95820.47;10497044;28;2737;-80
2023/10/16 23:43:45;;;;;;;;;;;;;;;2.91;100.00;95821.44;10499286;28;2573;-80
2023/10/16 23:48:49;;;;;;;;;;;;;;;2.84;100.00;95826.00;10506291;28;2874;-77
2023/10/16 23:53:52;;;;;;;;;;;;;;;2.97;100.00;95810.72;10510390;28;2080;-80
2023/10/16 23:59:00;;;;;;;;;;;;;;;3.01;100.00;95800.47;10519918;28;1918;-79
